This is the latest recevied weather packets stored in our database for station/object PY2CQC-13. If no packets are shown the sender has not sent any weather packets the latest 10 day(s).
| Time | Temp. | Humidity | Pressure | Rain* | Wind** | Luminosity | Snow |
|---|---|---|---|---|---|---|---|
| 1777014124 | 21.11° C | 68% | 1034 hPa | - | - | - | - |
| 1777012325 | 21.67° C | 67% | 1034.1 hPa | - | - | - | - |
| 1777010525 | 21.67° C | 67% | 1034.2 hPa | - | - | - | - |
| 1777008725 | 21.67° C | 67% | 1034.1 hPa | - | - | - | - |
| 1777006924 | 22.22° C | 66% | 1034.1 hPa | - | - | - | - |
| 1777005124 | 22.22° C | 66% | 1034.2 hPa | - | - | - | - |
| 1777003324 | 22.22° C | 66% | 1034.2 hPa | - | - | - | - |
| 1777001525 | 22.22° C | 66% | 1034.4 hPa | - | - | - | - |
| 1776999725 | 22.78° C | 65% | 1034.7 hPa | - | - | - | - |
| 1776997925 | 23.33° C | 64% | 1034.8 hPa | - | - | - | - |
| 1776996125 | 23.33° C | 63% | 1034.9 hPa | - | - | - | - |
| 1776994324 | 23.33° C | 64% | 1035.1 hPa | - | - | - | - |
| 1776992524 | 18.89° C | 80% | 1035.1 hPa | - | - | - | - |
| 1776990724 | 20° C | 76% | 1035.3 hPa | - | - | - | - |
| 1776988925 | 20.56° C | 74% | 1035.1 hPa | - | - | - | - |
| 1776987125 | 20° C | 75% | 1034.9 hPa | - | - | - | - |
| 1776985326 | 21.11° C | 72% | 1034.6 hPa | - | - | - | - |
| 1776983528 | 21.11° C | 69% | 1034.3 hPa | - | - | - | - |
| 1776981724 | 22.78° C | 55% | 1033.7 hPa | - | - | - | - |
| 1776979924 | 23.33° C | 54% | 1033.5 hPa | - | - | - | - |
| 1776978124 | 23.89° C | 52% | 1033.2 hPa | - | - | - | - |
| 1776976324 | 25° C | 52% | 1033 hPa | - | - | - | - |
| 1776974525 | 26.11° C | 51% | 1032.8 hPa | - | - | - | - |
| 1776972725 | 26.11° C | 50% | 1032.4 hPa | - | - | - | - |
| 1776970925 | 26.11° C | 52% | 1032.4 hPa | - | - | - | - |
* Rain since midnight (hover to see other rain measurements)
** Current wind speed in m/s (hover to see current wind gust speed)